createdAt,value
2023-01-17T00:00:50.380Z,32.30
2023-01-17T00:01:50.376Z,30.18
2023-01-17T00:02:50.487Z,32.89
2023-01-17T00:03:50.460Z,32.09
2023-01-17T00:04:50.345Z,34.20
2023-01-17T00:05:50.356Z,30.47
2023-01-17T00:54:43.281Z,25.00
2023-01-17T00:55:44.247Z,25.00
2023-01-17T00:56:44.244Z,25.00
2023-01-17T00:57:44.224Z,25.00
2023-01-17T00:58:44.214Z,25.00
2023-01-17T00:59:44.209Z,25.00
2023-01-17T01:00:44.271Z,6.18
2023-01-17T01:01:44.437Z,0.00
2023-01-17T01:02:44.257Z,0.00
2023-01-17T01:03:44.171Z,4.88
2023-01-17T01:04:44.161Z,14.48
2023-01-17T01:05:44.160Z,23.07
2023-01-17T01:06:44.142Z,25.00
2023-01-17T01:07:44.135Z,25.00
2023-01-17T01:08:44.125Z,25.00
2023-01-17T01:09:44.126Z,25.87
2023-01-17T01:10:44.136Z,25.98
2023-01-17T01:11:44.099Z,25.66
2023-01-17T01:12:44.091Z,26.04
2023-01-17T01:13:44.091Z,26.75
2023-01-17T01:14:44.082Z,25.73
2023-01-17T01:15:44.064Z,25.61
2023-01-17T01:16:44.055Z,25.48
2023-01-17T01:17:44.050Z,27.36
2023-01-17T01:18:44.044Z,25.00
2023-01-17T01:19:44.071Z,25.98
2023-01-17T01:20:44.025Z,25.75
2023-01-17T01:21:44.014Z,29.14
2023-01-17T01:22:44.007Z,26.59
2023-01-17T01:23:43.993Z,27.62
2023-01-17T01:24:43.985Z,28.47
2023-01-17T01:25:43.979Z,25.84
2023-01-17T01:26:43.995Z,25.20
2023-01-17T01:27:43.957Z,25.34
2023-01-17T01:28:43.955Z,25.66
2023-01-17T01:29:43.942Z,26.09
2023-01-17T01:30:43.933Z,25.96
2023-01-17T01:31:44.021Z,28.68
2023-01-17T01:32:43.913Z,26.29
2023-01-17T01:33:43.914Z,25.28
2023-01-17T01:34:43.897Z,27.59
2023-01-17T01:35:43.909Z,27.39
2023-01-17T01:36:43.920Z,26.95
2023-01-17T01:37:43.868Z,27.54
2023-01-17T01:38:43.862Z,26.40
2023-01-17T01:39:43.853Z,26.88
2023-01-17T01:40:43.892Z,26.75
2023-01-17T01:41:43.838Z,25.92
2023-01-17T01:42:43.854Z,25.25
2023-01-17T01:43:43.819Z,25.00
2023-01-17T01:44:43.812Z,28.60
2023-01-17T01:45:43.840Z,27.70
2023-01-17T01:46:43.792Z,28.86
2023-01-17T01:47:43.785Z,27.54
2023-01-17T01:48:43.779Z,27.11
2023-01-17T01:49:43.769Z,26.53
2023-01-17T01:50:43.756Z,28.10
2023-01-17T01:51:43.748Z,27.82
2023-01-17T01:52:43.761Z,28.72
2023-01-17T01:53:43.727Z,29.58
2023-01-17T01:54:43.723Z,28.30
2023-01-17T01:55:43.714Z,27.77
2023-01-17T01:56:43.720Z,26.19
2023-01-17T01:57:43.695Z,27.63
2023-01-17T01:58:43.714Z,25.16
2023-01-17T01:59:43.680Z,27.03
2023-01-17T02:00:43.715Z,26.61
2023-01-17T02:01:43.822Z,28.54
2023-01-17T02:02:43.664Z,28.91
2023-01-17T02:03:43.676Z,31.05
2023-01-17T02:04:43.638Z,27.86
2023-01-17T02:05:43.701Z,27.32
2023-01-17T02:06:43.615Z,27.88
2023-01-17T02:07:43.605Z,28.55
2023-01-17T02:08:43.594Z,28.55
2023-01-17T02:09:43.590Z,26.87
2023-01-17T02:10:43.582Z,26.11
2023-01-17T02:11:43.572Z,26.69
2023-01-17T02:12:43.563Z,28.32
2023-01-17T02:13:43.553Z,27.48
2023-01-17T02:14:43.578Z,25.99
2023-01-17T02:15:43.539Z,27.18
2023-01-17T02:16:43.624Z,28.72
2023-01-17T02:17:43.521Z,29.85
2023-01-17T02:18:43.519Z,28.14
2023-01-17T02:19:43.521Z,28.31
2023-01-17T02:20:43.493Z,28.59
2023-01-17T02:21:43.485Z,29.64
2023-01-17T02:22:43.482Z,28.74
2023-01-17T02:23:43.463Z,27.51
2023-01-17T02:24:43.460Z,28.01
2023-01-17T02:25:43.692Z,27.24
2023-01-17T02:26:43.438Z,27.84
2023-01-17T02:27:43.437Z,27.63
2023-01-17T02:28:43.424Z,27.28
2023-01-17T02:29:43.421Z,28.03
2023-01-17T02:30:43.432Z,27.74
2023-01-17T02:31:43.448Z,27.92
2023-01-17T02:32:43.390Z,25.77
2023-01-17T02:33:43.383Z,27.88
2023-01-17T02:34:43.381Z,28.26
2023-01-17T02:35:43.360Z,29.69
2023-01-17T02:36:43.382Z,28.18
2023-01-17T02:37:43.349Z,27.09
2023-01-17T02:38:43.332Z,25.81
2023-01-17T02:39:43.327Z,30.68
2023-01-17T02:40:43.333Z,27.83
2023-01-17T02:41:43.310Z,27.66
2023-01-17T02:42:43.333Z,30.04
2023-01-17T02:43:43.286Z,28.38
2023-01-17T02:44:43.286Z,27.60
2023-01-17T02:45:43.292Z,27.97
2023-01-17T02:46:43.285Z,26.54
2023-01-17T02:47:43.254Z,28.42
2023-01-17T02:48:43.263Z,29.90
2023-01-17T02:49:43.235Z,26.66
2023-01-17T02:50:43.233Z,29.31
2023-01-17T02:51:43.232Z,25.75
2023-01-17T02:52:43.218Z,27.99
2023-01-17T02:53:43.204Z,25.08
2023-01-17T02:54:43.190Z,29.03
2023-01-17T02:55:43.198Z,28.19
2023-01-17T02:56:43.177Z,27.47
2023-01-17T02:57:43.178Z,26.30
2023-01-17T02:58:43.156Z,28.73
2023-01-17T02:59:43.149Z,29.25
2023-01-17T03:00:43.142Z,27.80
2023-01-17T03:01:43.323Z,27.83
2023-01-17T03:02:43.212Z,29.26
2023-01-17T03:03:43.126Z,30.58
2023-01-17T03:04:43.111Z,28.95
2023-01-17T03:05:43.124Z,29.24
2023-01-17T03:06:43.097Z,31.53
2023-01-17T03:07:43.084Z,25.00
2023-01-17T03:08:43.078Z,29.94
2023-01-17T03:09:43.071Z,26.89
2023-01-17T03:10:43.073Z,26.63
2023-01-17T03:11:43.047Z,30.72
2023-01-17T03:12:43.050Z,28.97
2023-01-17T03:13:43.035Z,28.15
2023-01-17T03:14:43.017Z,29.62
2023-01-17T03:15:43.009Z,29.23
2023-01-17T03:16:43.038Z,30.85
2023-01-17T03:17:42.998Z,29.45
2023-01-17T03:18:43.072Z,27.23
2023-01-17T03:19:42.973Z,31.10
2023-01-17T03:20:42.964Z,29.92
2023-01-17T03:21:42.983Z,27.14
2023-01-17T03:22:42.952Z,29.53
2023-01-17T03:23:42.939Z,26.14
2023-01-17T03:24:42.935Z,31.33
2023-01-17T03:25:42.926Z,29.14
2023-01-17T03:26:42.922Z,26.79
2023-01-17T03:27:42.901Z,31.04
2023-01-17T03:28:42.911Z,28.72
2023-01-17T03:29:42.884Z,29.47
2023-01-17T03:30:42.940Z,29.18
2023-01-17T03:31:42.879Z,26.87
2023-01-17T03:32:42.861Z,28.57
2023-01-17T03:33:42.851Z,30.81
2023-01-17T03:34:42.886Z,28.55
2023-01-17T03:35:42.838Z,30.72
2023-01-17T03:36:42.827Z,30.09
2023-01-17T03:37:42.814Z,28.69
2023-01-17T03:38:42.806Z,27.77
2023-01-17T03:39:42.799Z,27.21
2023-01-17T03:40:42.791Z,29.95
2023-01-17T03:41:42.797Z,29.25
2023-01-17T03:42:42.806Z,27.65
2023-01-17T03:43:42.765Z,29.87
2023-01-17T03:44:42.753Z,30.28
2023-01-17T03:45:42.802Z,30.69
2023-01-17T03:46:42.739Z,28.35
2023-01-17T03:47:42.729Z,28.79
2023-01-17T03:48:42.720Z,30.81
2023-01-17T03:49:42.710Z,29.90
2023-01-17T03:50:42.725Z,30.55
2023-01-17T03:51:42.693Z,29.06
2023-01-17T03:52:42.684Z,31.27
2023-01-17T03:53:42.687Z,30.24
2023-01-17T03:54:42.675Z,29.43
2023-01-17T03:55:42.658Z,29.57
2023-01-17T03:56:42.650Z,29.19
2023-01-17T03:57:42.644Z,30.33
2023-01-17T03:58:42.630Z,29.74
2023-01-17T03:59:42.633Z,29.53
2023-01-17T04:00:42.615Z,30.18
2023-01-17T04:01:42.705Z,29.50
2023-01-17T04:02:42.664Z,29.46
2023-01-17T04:03:42.588Z,30.24
2023-01-17T04:04:42.581Z,30.01
2023-01-17T04:05:42.570Z,30.45
2023-01-17T04:06:42.601Z,30.27
2023-01-17T04:07:42.556Z,31.40
2023-01-17T04:08:42.550Z,30.62
2023-01-17T04:09:42.537Z,30.36
2023-01-17T04:10:42.526Z,31.31
2023-01-17T04:11:42.517Z,29.39
2023-01-17T04:12:42.518Z,30.29
2023-01-17T04:13:42.527Z,30.45
2023-01-17T04:14:42.492Z,30.28
2023-01-17T04:15:42.483Z,26.92
2023-01-17T04:16:42.507Z,28.97
2023-01-17T04:17:42.467Z,28.93
2023-01-17T04:18:42.471Z,31.26
2023-01-17T04:19:42.451Z,29.56
2023-01-17T04:20:42.440Z,30.26
2023-01-17T04:21:42.432Z,29.94
2023-01-17T04:22:42.450Z,30.11
2023-01-17T04:23:42.415Z,30.18
2023-01-17T04:24:42.410Z,29.03
2023-01-17T04:25:42.394Z,26.94
2023-01-17T04:26:42.392Z,31.61
2023-01-17T04:27:42.378Z,28.65
2023-01-17T04:28:42.371Z,30.10
2023-01-17T04:29:42.363Z,31.20
2023-01-17T04:30:42.374Z,32.42
2023-01-17T04:31:42.435Z,29.01
2023-01-17T04:32:42.340Z,31.38
2023-01-17T04:33:42.326Z,31.63
2023-01-17T04:34:42.317Z,30.18
2023-01-17T04:35:42.307Z,32.71
2023-01-17T04:36:42.303Z,32.18
2023-01-17T04:37:42.290Z,31.48
2023-01-17T04:38:42.313Z,29.05
2023-01-17T04:39:42.281Z,31.84
2023-01-17T04:40:42.261Z,32.86
2023-01-17T04:41:42.258Z,27.90
2023-01-17T04:42:42.247Z,31.94
2023-01-17T04:43:42.238Z,30.48
2023-01-17T04:44:42.238Z,31.90
2023-01-17T04:45:42.243Z,29.77
2023-01-17T04:46:42.213Z,31.05
2023-01-17T04:47:42.203Z,31.32
2023-01-17T04:48:42.193Z,31.59
2023-01-17T04:49:44.064Z,29.08
2023-01-17T04:50:42.185Z,31.75
2023-01-17T04:51:42.178Z,36.70
2023-01-17T04:52:42.161Z,35.00
2023-01-17T04:53:42.150Z,32.93
2023-01-17T04:54:42.183Z,32.77
2023-01-17T04:55:42.130Z,29.85
2023-01-17T04:56:42.136Z,31.11
2023-01-17T04:57:42.117Z,30.34
2023-01-17T04:59:42.104Z,31.81
2023-01-17T05:00:42.099Z,30.17
2023-01-17T05:01:42.236Z,29.19
2023-01-17T05:02:42.157Z,32.52
2023-01-17T05:03:42.067Z,29.67
2023-01-17T05:04:42.052Z,28.16
2023-01-17T05:05:42.046Z,28.99
2023-01-17T05:06:42.040Z,31.27
2023-01-17T05:07:42.028Z,30.11
2023-01-17T05:08:42.033Z,28.52
2023-01-17T05:09:42.006Z,30.95
2023-01-17T05:10:42.032Z,29.04
2023-01-17T05:11:42.003Z,29.35
2023-01-17T05:12:41.986Z,28.77
2023-01-17T05:13:41.976Z,29.12
2023-01-17T05:14:41.987Z,31.12
2023-01-17T05:15:42.026Z,31.38
2023-01-17T05:16:41.955Z,30.52
2023-01-17T05:17:41.942Z,30.39
2023-01-17T05:18:41.938Z,30.35
2023-01-17T05:19:41.922Z,30.77
2023-01-17T05:20:41.912Z,31.88
2023-01-17T05:21:41.909Z,32.76
2023-01-17T05:22:41.898Z,30.89
2023-01-17T05:23:41.888Z,30.59
2023-01-17T05:24:41.879Z,27.96
2023-01-17T05:25:41.874Z,29.13
2023-01-17T05:26:41.889Z,30.47
2023-01-17T05:27:41.866Z,30.00
2023-01-17T05:28:41.849Z,29.30
2023-01-17T05:29:41.849Z,29.82
2023-01-17T05:30:41.904Z,28.48
2023-01-17T05:31:41.826Z,30.32
2023-01-17T05:32:41.811Z,29.78
2023-01-17T05:33:41.803Z,30.70
2023-01-17T05:34:41.800Z,29.87
2023-01-17T05:35:41.783Z,30.64
2023-01-17T05:36:41.779Z,29.39
2023-01-17T05:37:41.763Z,31.33
2023-01-17T05:38:41.758Z,29.96
2023-01-17T05:39:41.751Z,31.41
2023-01-17T05:40:41.740Z,30.48
2023-01-17T05:41:41.730Z,30.30
2023-01-17T05:42:41.744Z,31.08
2023-01-17T05:43:41.714Z,29.86
2023-01-17T05:44:41.711Z,30.91
2023-01-17T05:45:41.697Z,29.27
2023-01-17T05:46:41.747Z,31.19
2023-01-17T05:50:41.653Z,29.98
2023-01-17T05:51:41.642Z,32.19
2023-01-17T05:52:41.639Z,31.60
2023-01-17T05:53:41.631Z,32.89
2023-01-17T05:54:41.620Z,31.14
2023-01-17T05:55:41.612Z,28.85
2023-01-17T05:56:41.599Z,30.58
2023-01-17T05:57:41.594Z,30.92
2023-01-17T05:58:41.614Z,30.41
2023-01-17T05:59:41.578Z,32.60
2023-01-17T06:00:41.570Z,31.15
2023-01-17T06:01:41.552Z,29.46
2023-01-17T06:02:41.588Z,29.10
2023-01-17T06:03:41.535Z,30.01
2023-01-17T06:04:41.623Z,32.40
2023-01-17T06:05:41.526Z,29.60
2023-01-17T06:06:41.509Z,30.38
2023-01-17T06:07:41.521Z,30.48
2023-01-17T06:09:41.486Z,26.04
2023-01-17T06:10:41.475Z,28.75
2023-01-17T06:11:41.511Z,26.67
2023-01-17T06:12:41.460Z,25.00
2023-01-17T06:13:41.457Z,27.84
2023-01-17T06:14:41.468Z,28.65
2023-01-17T06:15:41.498Z,27.07
2023-01-17T06:16:41.426Z,30.54
2023-01-17T06:17:41.420Z,26.05
2023-01-17T06:18:41.407Z,25.00
2023-01-17T06:19:41.403Z,25.94
2023-01-17T06:20:41.414Z,25.10
2023-01-17T06:21:41.381Z,25.16
2023-01-17T06:22:41.373Z,25.00
2023-01-17T06:24:41.405Z,25.90
2023-01-17T06:25:41.390Z,25.55
2023-01-17T06:26:41.335Z,26.62
2023-01-17T06:27:41.328Z,27.06
2023-01-17T06:28:41.316Z,26.32
2023-01-17T06:29:41.409Z,25.00
2023-01-17T06:31:41.354Z,26.12
2023-01-17T06:38:41.410Z,28.14
2023-01-17T06:43:41.425Z,50.73
2023-01-17T07:00:56.803Z,79.33
2023-01-17T07:08:41.000Z,79.93
2023-01-17T08:27:40.280Z,122.44
2023-01-17T08:28:40.269Z,128.62
2023-01-17T08:29:40.277Z,141.09
2023-01-17T08:31:40.273Z,251.57
2023-01-17T08:32:40.242Z,248.31
2023-01-17T08:41:40.283Z,232.54
2023-01-17T08:43:41.178Z,293.94
2023-01-17T09:00:40.388Z,197.70
2023-01-17T09:07:40.257Z,250.00
2023-01-17T09:17:39.895Z,208.56
2023-01-17T09:19:39.854Z,205.75
2023-01-17T09:30:40.780Z,180.80
2023-01-17T10:37:39.711Z,204.34
2023-01-17T11:14:39.017Z,60.75
2023-01-17T14:14:37.444Z,59.00
